createdAt,value
2023-01-13T00:00:09.181Z,81.50
2023-01-13T00:03:12.480Z,80.20
2023-01-13T00:06:17.936Z,82.10
2023-01-13T00:09:22.366Z,81.90
2023-01-13T00:12:25.301Z,81.40
2023-01-13T00:15:28.234Z,82.00
2023-01-13T00:18:31.260Z,82.10
2023-01-13T00:21:34.146Z,82.00
2023-01-13T00:24:38.355Z,82.00
2023-01-13T00:27:41.329Z,81.30
2023-01-13T00:30:44.209Z,82.20
2023-01-13T00:33:48.965Z,82.20
2023-01-13T00:36:51.929Z,82.10
2023-01-13T00:39:57.856Z,82.10
2023-01-13T00:43:18.904Z,82.90
2023-01-13T00:46:23.107Z,82.10
2023-01-13T00:49:26.160Z,82.10
2023-01-13T00:52:29.097Z,82.10
2023-01-13T00:55:33.432Z,81.70
2023-01-13T00:58:36.941Z,82.40
2023-01-13T01:01:40.674Z,83.30
2023-01-13T01:04:43.679Z,82.60
2023-01-13T01:07:46.604Z,82.60
2023-01-13T01:10:50.819Z,82.60
2023-01-13T01:13:56.160Z,82.40
2023-01-13T01:16:59.058Z,82.80
2023-01-13T01:20:01.917Z,82.20
2023-01-13T01:23:05.337Z,82.00
2023-01-13T01:26:13.061Z,81.90
2023-01-13T01:29:16.412Z,81.80
2023-01-13T01:32:19.420Z,81.70
2023-01-13T01:35:22.368Z,82.20
2023-01-13T01:38:25.229Z,81.50
2023-01-13T01:41:32.526Z,81.50
2023-01-13T01:44:56.570Z,80.70
2023-01-13T01:48:02.163Z,81.30
2023-01-13T01:51:08.072Z,81.20
2023-01-13T01:54:13.778Z,81.20
2023-01-13T01:57:24.044Z,81.30
2023-01-13T02:00:29.460Z,81.00
2023-01-13T02:03:32.450Z,80.90
2023-01-13T02:06:35.455Z,80.10
2023-01-13T02:09:38.499Z,80.70
2023-01-13T02:12:44.288Z,79.40
2023-01-13T02:15:56.010Z,80.00
2023-01-13T02:19:08.360Z,80.60
2023-01-13T02:22:27.210Z,80.80
2023-01-13T02:25:48.518Z,80.60
2023-01-13T02:29:29.520Z,79.80
2023-01-13T02:32:37.799Z,79.60
2023-01-13T02:35:49.940Z,79.40
2023-01-13T02:38:58.563Z,79.40
2023-01-13T02:42:26.100Z,78.70
2023-01-13T02:45:33.243Z,79.50
2023-01-13T02:48:39.432Z,77.60
2023-01-13T02:51:45.267Z,78.60
2023-01-13T02:54:53.796Z,78.50
2023-01-13T02:58:00.428Z,78.10
2023-01-13T03:01:03.446Z,78.40
2023-01-13T03:04:15.537Z,78.30
2023-01-13T03:07:43.711Z,78.30
2023-01-13T03:11:02.110Z,78.20
2023-01-13T03:14:19.821Z,78.10
2023-01-13T03:17:32.900Z,77.90
2023-01-13T03:20:42.181Z,77.80
2023-01-13T03:23:52.381Z,76.70
2023-01-13T03:27:03.478Z,77.50
2023-01-13T03:30:10.238Z,77.40
2023-01-13T03:33:17.785Z,77.50
2023-01-13T03:36:25.645Z,76.40
2023-01-13T03:39:32.235Z,77.50
2023-01-13T03:42:38.521Z,77.70
2023-01-13T03:45:42.175Z,77.20
2023-01-13T03:48:47.167Z,76.40
2023-01-13T03:51:56.464Z,77.00
2023-01-13T03:55:05.135Z,77.50
2023-01-13T03:58:14.308Z,77.10
2023-01-13T04:01:21.053Z,78.00
2023-01-13T04:04:30.649Z,78.10
2023-01-13T04:07:45.798Z,77.40
2023-01-13T04:10:53.464Z,77.40
2023-01-13T04:13:58.000Z,77.30
2023-01-13T04:17:00.903Z,77.20
2023-01-13T04:20:03.759Z,77.20
2023-01-13T04:23:08.505Z,76.70
2023-01-13T04:26:11.332Z,77.10
2023-01-13T04:29:15.729Z,78.10
2023-01-13T04:32:18.743Z,77.10
2023-01-13T04:35:21.562Z,77.00
2023-01-13T04:38:25.803Z,75.80
2023-01-13T04:41:28.695Z,76.90
2023-01-13T04:44:35.184Z,77.50
2023-01-13T04:47:38.007Z,76.90
2023-01-13T04:50:40.899Z,76.90
2023-01-13T04:53:46.738Z,76.90
2023-01-13T04:56:49.596Z,76.80
2023-01-13T04:59:52.754Z,76.80
2023-01-13T05:02:55.703Z,76.10
2023-01-13T05:05:58.612Z,77.00
2023-01-13T05:09:02.831Z,76.70
2023-01-13T05:12:22.644Z,76.80
2023-01-13T05:15:43.499Z,75.80
2023-01-13T05:18:46.393Z,77.20
2023-01-13T05:22:09.084Z,76.80
2023-01-13T05:25:22.954Z,76.90
2023-01-13T05:28:25.829Z,77.90
2023-01-13T05:31:28.739Z,76.50
2023-01-13T05:34:33.528Z,77.10
2023-01-13T05:37:36.521Z,76.00
2023-01-13T05:40:59.758Z,77.50
2023-01-13T05:44:02.710Z,77.20
2023-01-13T05:47:05.736Z,77.20
2023-01-13T05:50:10.349Z,76.40
2023-01-13T05:53:13.802Z,77.20
2023-01-13T05:56:18.286Z,77.30
2023-01-13T05:59:21.066Z,78.50
2023-01-13T06:02:24.766Z,77.50
2023-01-13T06:05:28.258Z,77.00
2023-01-13T06:08:31.898Z,78.00
2023-01-13T06:11:36.114Z,77.50
2023-01-13T06:14:40.864Z,77.50
2023-01-13T06:17:43.814Z,77.40
2023-01-13T06:20:47.772Z,77.50
2023-01-13T06:23:50.701Z,77.90
2023-01-13T06:26:55.086Z,77.40
2023-01-13T06:29:58.027Z,78.80
2023-01-13T06:33:05.783Z,77.30
2023-01-13T06:36:13.317Z,77.20
2023-01-13T06:39:20.695Z,76.70
2023-01-13T06:42:42.878Z,77.20
2023-01-13T06:45:49.539Z,77.00
2023-01-13T06:48:52.301Z,77.10
2023-01-13T06:51:55.150Z,77.10
2023-01-13T06:54:58.131Z,77.00
2023-01-13T06:58:02.281Z,77.30
2023-01-13T07:01:05.414Z,77.10
2023-01-13T07:04:08.307Z,77.00
2023-01-13T07:07:12.401Z,77.20
2023-01-13T07:10:22.134Z,77.30
2023-01-13T07:13:44.024Z,77.30
2023-01-13T07:16:46.929Z,77.20
2023-01-13T07:19:49.856Z,77.20
2023-01-13T07:22:55.620Z,77.20
2023-01-13T07:25:59.444Z,75.70
2023-01-13T07:29:03.747Z,77.20
2023-01-13T07:32:07.915Z,76.80
2023-01-13T07:35:10.857Z,77.90
2023-01-13T07:38:13.737Z,77.10
2023-01-13T07:41:34.471Z,76.90
2023-01-13T07:44:38.670Z,76.40
2023-01-13T07:47:41.711Z,76.80
2023-01-13T07:50:44.539Z,76.60
2023-01-13T07:53:47.385Z,76.90
2023-01-13T07:56:50.258Z,76.70
2023-01-13T07:59:54.485Z,76.60
2023-01-13T08:02:57.311Z,76.80
2023-01-13T08:06:01.871Z,75.90
2023-01-13T08:09:04.883Z,75.50
2023-01-13T08:12:25.577Z,76.10
2023-01-13T08:15:30.607Z,76.20
2023-01-13T08:18:34.568Z,76.20
2023-01-13T08:21:37.354Z,76.50
2023-01-13T08:24:40.452Z,76.50
2023-01-13T08:27:43.291Z,75.90
2023-01-13T08:30:47.541Z,77.40
2023-01-13T08:33:50.559Z,74.80
2023-01-13T08:36:53.324Z,75.80
2023-01-13T08:39:57.255Z,75.50
2023-01-13T08:43:00.943Z,75.00
2023-01-13T08:46:05.514Z,75.70
2023-01-13T08:49:08.432Z,73.90
2023-01-13T08:52:11.545Z,75.80
2023-01-13T08:55:14.379Z,75.40
2023-01-13T08:58:17.230Z,74.70
2023-01-13T09:01:23.751Z,74.80
2023-01-13T09:04:28.952Z,73.50
2023-01-13T09:07:32.046Z,74.20
2023-01-13T09:10:35.635Z,75.00
2023-01-13T09:13:37.529Z,74.00
2023-01-13T09:16:41.774Z,73.30
2023-01-13T09:19:44.961Z,74.00
2023-01-13T09:22:47.822Z,73.50
2023-01-13T09:25:53.401Z,73.10
2023-01-13T09:28:56.333Z,72.50
2023-01-13T09:32:00.604Z,73.10
2023-01-13T09:35:03.825Z,72.40
2023-01-13T09:38:07.254Z,71.80
2023-01-13T09:41:34.132Z,71.40
2023-01-13T09:44:43.849Z,71.60
2023-01-13T09:47:55.881Z,71.10
2023-01-13T09:51:04.551Z,70.90
2023-01-13T09:54:13.727Z,71.20
2023-01-13T09:57:19.232Z,70.30
2023-01-13T10:00:23.835Z,70.40
2023-01-13T10:03:29.525Z,70.80
2023-01-13T10:06:38.703Z,70.20
2023-01-13T10:09:48.900Z,71.00
2023-01-13T10:13:09.908Z,71.20
2023-01-13T10:16:25.629Z,71.20
2023-01-13T10:19:33.947Z,72.10
2023-01-13T10:23:01.950Z,70.60
2023-01-13T10:26:17.839Z,70.30
2023-01-13T10:29:24.726Z,71.50
2023-01-13T10:32:27.535Z,69.30
2023-01-13T10:35:51.986Z,70.30
2023-01-13T10:39:08.384Z,70.30
2023-01-13T10:42:15.073Z,70.30
2023-01-13T10:45:26.392Z,70.00
2023-01-13T10:48:39.516Z,69.90
2023-01-13T10:51:45.932Z,68.70
2023-01-13T10:54:52.720Z,70.20
2023-01-13T10:57:55.594Z,70.10
2023-01-13T11:01:03.595Z,70.50
2023-01-13T11:04:26.959Z,69.20
2023-01-13T11:07:33.760Z,69.80
2023-01-13T11:10:46.771Z,70.10
2023-01-13T11:14:09.260Z,71.50
2023-01-13T11:17:33.956Z,68.70
2023-01-13T11:20:41.245Z,70.20
2023-01-13T11:23:49.721Z,69.80
2023-01-13T11:26:56.150Z,70.20
2023-01-13T11:30:09.696Z,70.50
2023-01-13T11:33:28.127Z,70.20
2023-01-13T11:36:38.501Z,70.00
2023-01-13T11:39:50.377Z,68.50
2023-01-13T11:43:00.866Z,70.40
2023-01-13T11:46:04.093Z,70.70
2023-01-13T11:49:07.014Z,70.30
2023-01-13T11:52:20.038Z,70.50
2023-01-13T11:55:36.338Z,70.40
2023-01-13T11:58:59.941Z,70.40
2023-01-13T12:02:21.370Z,71.00
2023-01-13T12:05:30.557Z,70.20
2023-01-13T12:08:57.736Z,70.80
2023-01-13T12:12:22.886Z,70.70
2023-01-13T12:15:39.462Z,71.40
2023-01-13T12:19:04.930Z,70.60
2023-01-13T12:22:12.457Z,70.00
2023-01-13T12:25:22.295Z,71.30
2023-01-13T12:28:29.803Z,70.90
2023-01-13T12:31:36.338Z,71.70
2023-01-13T12:35:01.990Z,71.60
2023-01-13T12:38:12.505Z,71.40
2023-01-13T12:41:29.502Z,71.80
2023-01-13T12:44:32.843Z,72.20
2023-01-13T12:47:37.947Z,71.30
2023-01-13T12:50:42.932Z,71.20
2023-01-13T12:53:45.818Z,70.10
2023-01-13T12:56:49.098Z,71.20
2023-01-13T13:00:18.300Z,71.00
2023-01-13T13:03:32.873Z,71.30
2023-01-13T13:06:38.250Z,71.30
2023-01-13T13:09:44.730Z,70.60
2023-01-13T13:13:12.060Z,71.80
2023-01-13T13:16:51.896Z,72.00
2023-01-13T13:19:57.487Z,72.00
2023-01-13T13:23:00.331Z,72.20
2023-01-13T13:26:10.928Z,72.40
2023-01-13T13:29:29.583Z,72.30
2023-01-13T13:33:00.407Z,72.30
2023-01-13T13:36:16.134Z,72.30
2023-01-13T13:39:40.808Z,72.40
2023-01-13T13:43:03.030Z,71.80
2023-01-13T13:46:41.059Z,72.50
2023-01-13T13:49:48.665Z,73.10
2023-01-13T13:52:59.690Z,72.80
2023-01-13T13:56:07.376Z,73.00
2023-01-13T13:59:12.666Z,73.10
2023-01-13T14:02:21.018Z,74.20
2023-01-13T14:05:25.749Z,73.30
2023-01-13T14:08:32.232Z,73.40
2023-01-13T14:11:36.003Z,73.80
2023-01-13T14:14:44.103Z,73.50
2023-01-13T14:17:46.963Z,73.70
2023-01-13T14:20:57.211Z,73.80
2023-01-13T14:24:05.521Z,73.70
2023-01-13T14:27:10.324Z,75.10
2023-01-13T14:30:17.969Z,73.80
2023-01-13T14:33:25.461Z,73.80
2023-01-13T14:36:37.799Z,73.80
2023-01-13T14:39:42.697Z,74.40
2023-01-13T14:42:46.590Z,73.70
2023-01-13T14:45:58.696Z,74.10
2023-01-13T14:49:02.072Z,73.80
2023-01-13T14:52:11.178Z,73.60
2023-01-13T14:55:29.583Z,73.70
2023-01-13T14:58:32.428Z,72.50
2023-01-13T15:01:39.341Z,73.60
2023-01-13T15:04:42.361Z,73.50
2023-01-13T15:07:50.566Z,73.50
2023-01-13T15:10:59.762Z,73.50
2023-01-13T15:14:03.042Z,73.60
2023-01-13T15:17:19.301Z,73.20
2023-01-13T15:20:23.886Z,73.50
2023-01-13T15:23:30.346Z,74.80
2023-01-13T15:26:35.912Z,73.60
2023-01-13T15:29:40.234Z,73.70
2023-01-13T15:32:43.556Z,73.50
2023-01-13T15:35:48.493Z,72.20
2023-01-13T15:38:51.738Z,73.50
2023-01-13T15:42:13.649Z,73.60
2023-01-13T15:45:34.293Z,73.70
2023-01-13T15:48:38.755Z,73.40
2023-01-13T15:51:45.128Z,73.70
2023-01-13T15:54:49.589Z,73.70
2023-01-13T15:57:54.061Z,73.90
2023-01-13T16:00:58.343Z,73.80
2023-01-13T16:04:01.433Z,72.90
2023-01-13T16:07:04.560Z,72.90
2023-01-13T16:10:17.101Z,73.50
2023-01-13T16:13:21.526Z,73.20
2023-01-13T16:16:26.188Z,73.70
2023-01-13T16:19:30.050Z,73.70
2023-01-13T16:22:34.704Z,73.90
2023-01-13T16:25:40.284Z,73.40
2023-01-13T16:28:45.055Z,74.90
2023-01-13T16:34:51.503Z,74.30
2023-01-13T16:37:59.591Z,74.10
2023-01-13T16:41:03.309Z,74.50
2023-01-13T16:44:08.057Z,74.40
2023-01-13T16:47:16.833Z,73.80
2023-01-13T16:50:32.760Z,74.40
2023-01-13T16:53:35.891Z,73.90
2023-01-13T16:56:39.012Z,74.60
2023-01-13T16:59:43.256Z,74.60
2023-01-13T17:02:46.109Z,74.60
2023-01-13T17:05:48.941Z,75.00
2023-01-13T17:08:53.123Z,73.50
2023-01-13T17:11:56.827Z,75.90
2023-01-13T17:15:02.064Z,74.90
2023-01-13T17:18:05.208Z,75.00
2023-01-13T17:21:08.159Z,75.10
2023-01-13T17:24:12.286Z,75.10
2023-01-13T17:27:17.171Z,75.10
2023-01-13T17:30:21.641Z,75.00
2023-01-13T17:33:24.483Z,74.90
2023-01-13T17:36:27.278Z,74.90
2023-01-13T17:39:30.569Z,75.90
2023-01-13T17:42:33.384Z,74.80
2023-01-13T17:45:41.635Z,74.90
2023-01-13T17:48:44.471Z,74.80
2023-01-13T17:51:48.228Z,75.60
2023-01-13T17:54:51.061Z,75.00
2023-01-13T17:57:53.885Z,75.10
2023-01-13T18:00:58.106Z,75.60
2023-01-13T18:04:01.598Z,74.80
2023-01-13T18:07:05.411Z,75.70
2023-01-13T18:10:09.101Z,74.60
2023-01-13T18:13:11.892Z,74.10
2023-01-13T18:16:18.506Z,74.00
2023-01-13T18:19:39.220Z,75.00
2023-01-13T18:22:59.879Z,75.50
2023-01-13T18:26:33.188Z,74.40
2023-01-13T18:29:36.091Z,75.00
2023-01-13T18:32:40.248Z,73.90
2023-01-13T18:35:43.076Z,74.40
2023-01-13T18:38:46.296Z,73.40
2023-01-13T18:42:06.793Z,75.20
2023-01-13T18:45:10.674Z,73.60
2023-01-13T18:48:16.157Z,73.40
2023-01-13T18:51:19.115Z,74.80
2023-01-13T18:54:22.165Z,73.60
2023-01-13T18:57:25.019Z,73.60
2023-01-13T19:00:28.011Z,73.50
2023-01-13T19:03:32.578Z,74.00
2023-01-13T19:06:35.842Z,73.40
2023-01-13T19:09:39.382Z,73.80
2023-01-13T19:12:42.284Z,73.10
2023-01-13T19:15:45.317Z,73.60
2023-01-13T19:18:49.941Z,73.60
2023-01-13T19:21:52.798Z,73.70
2023-01-13T19:24:55.704Z,73.90
2023-01-13T19:27:58.549Z,73.90
2023-01-13T19:31:01.726Z,73.90
2023-01-13T19:34:06.047Z,74.00
2023-01-13T19:37:08.903Z,74.00
2023-01-13T19:40:14.257Z,74.10
2023-01-13T19:43:34.962Z,74.10
2023-01-13T19:46:37.838Z,74.70
2023-01-13T19:49:41.992Z,72.70
2023-01-13T19:52:45.043Z,74.60
2023-01-13T19:55:49.269Z,74.00
2023-01-13T19:58:52.087Z,75.30
2023-01-13T20:01:54.933Z,73.80
2023-01-13T20:05:07.508Z,73.90
2023-01-13T20:08:11.061Z,73.80
2023-01-13T20:11:29.481Z,73.50
2023-01-13T20:14:38.519Z,73.20
2023-01-13T20:17:48.548Z,73.70
2023-01-13T20:21:01.919Z,73.60
2023-01-13T20:24:11.485Z,73.60
2023-01-13T20:27:21.477Z,73.80
2023-01-13T20:30:24.534Z,74.00
2023-01-13T20:33:33.480Z,74.20
2023-01-13T20:36:45.471Z,74.30
2023-01-13T20:39:48.374Z,74.50
2023-01-13T20:42:58.499Z,74.70
2023-01-13T20:46:11.490Z,74.80
2023-01-13T20:49:15.674Z,74.90
2023-01-13T20:52:26.459Z,76.00
2023-01-13T20:55:29.255Z,74.90
2023-01-13T20:58:38.445Z,74.60
2023-01-13T21:01:41.412Z,75.10
2023-01-13T21:04:51.440Z,75.20
2023-01-13T21:08:02.407Z,75.30
2023-01-13T21:11:16.444Z,75.20
2023-01-13T21:14:45.453Z,74.80
2023-01-13T21:18:14.416Z,76.50
2023-01-13T21:21:24.387Z,75.30
2023-01-13T21:24:28.856Z,75.40
2023-01-13T21:27:39.414Z,75.00
2023-01-13T21:30:50.401Z,75.00
2023-01-13T21:33:53.988Z,75.50
2023-01-13T21:37:03.457Z,74.20
2023-01-13T21:40:10.992Z,75.60
2023-01-13T21:43:38.436Z,76.40
2023-01-13T21:46:58.882Z,75.90
2023-01-13T21:50:08.395Z,75.80
2023-01-13T21:53:18.362Z,75.80
2023-01-13T21:56:23.168Z,75.70
2023-01-13T21:59:32.395Z,75.60
2023-01-13T22:02:36.630Z,75.60
2023-01-13T22:06:01.587Z,75.10
2023-01-13T22:09:12.471Z,75.40
2023-01-13T22:12:29.447Z,75.40
2023-01-13T22:15:40.782Z,75.50
2023-01-13T22:18:54.039Z,75.60
2023-01-13T22:22:03.430Z,76.20
2023-01-13T22:25:08.942Z,75.90
2023-01-13T22:28:22.382Z,77.30
2023-01-13T22:31:25.444Z,75.90
2023-01-13T22:34:35.335Z,76.10
2023-01-13T22:37:45.365Z,76.10
2023-01-13T22:40:56.873Z,76.20
2023-01-13T22:44:08.377Z,76.80
2023-01-13T22:47:11.130Z,76.20
2023-01-13T22:50:20.387Z,76.30
2023-01-13T22:53:23.605Z,76.30
2023-01-13T22:56:34.327Z,75.60
2023-01-13T22:59:45.326Z,76.40
2023-01-13T23:02:54.334Z,75.90
2023-01-13T23:05:58.439Z,76.00
2023-01-13T23:09:08.308Z,77.90
2023-01-13T23:12:17.320Z,76.40
2023-01-13T23:15:21.491Z,76.40
2023-01-13T23:18:32.316Z,76.40
2023-01-13T23:21:44.356Z,76.50
2023-01-13T23:24:53.294Z,76.50
2023-01-13T23:28:03.313Z,76.50
2023-01-13T23:31:13.286Z,75.90
2023-01-13T23:34:24.395Z,76.60
2023-01-13T23:37:34.291Z,76.60
2023-01-13T23:40:38.306Z,76.80
2023-01-13T23:43:47.252Z,76.80
2023-01-13T23:46:51.403Z,76.80
2023-01-13T23:50:01.286Z,76.70
2023-01-13T23:53:04.073Z,75.60
2023-01-13T23:56:16.305Z,76.80
2023-01-13T23:59:26.256Z,76.80
